sensor_id;sensor_type;location;lat;lon;timestamp;P1;durP1;ratioP1;P2;durP2;ratioP2
75090;SDS011;63674;48.048;8.306;2023-07-13T00:01:13;10.93;;;2.42;;
75090;SDS011;63674;48.048;8.306;2023-07-13T00:03:43;7.38;;;2.50;;
75090;SDS011;63674;48.048;8.306;2023-07-13T00:06:12;6.13;;;2.20;;
75090;SDS011;63674;48.048;8.306;2023-07-13T00:08:41;6.97;;;2.50;;
75090;SDS011;63674;48.048;8.306;2023-07-13T00:11:10;7.67;;;1.97;;
75090;SDS011;63674;48.048;8.306;2023-07-13T00:13:39;6.22;;;2.05;;
75090;SDS011;63674;48.048;8.306;2023-07-13T00:16:09;8.20;;;2.30;;
75090;SDS011;63674;48.048;8.306;2023-07-13T00:18:40;7.07;;;2.22;;
75090;SDS011;63674;48.048;8.306;2023-07-13T00:21:10;5.90;;;2.00;;
75090;SDS011;63674;48.048;8.306;2023-07-13T00:23:39;5.70;;;2.00;;
75090;SDS011;63674;48.048;8.306;2023-07-13T00:26:11;7.50;;;2.00;;
75090;SDS011;63674;48.048;8.306;2023-07-13T00:28:40;7.53;;;2.58;;
75090;SDS011;63674;48.048;8.306;2023-07-13T00:31:09;5.75;;;1.75;;
75090;SDS011;63674;48.048;8.306;2023-07-13T00:33:41;5.45;;;1.70;;
75090;SDS011;63674;48.048;8.306;2023-07-13T00:36:11;9.00;;;2.00;;
75090;SDS011;63674;48.048;8.306;2023-07-13T00:38:40;7.80;;;2.35;;
75090;SDS011;63674;48.048;8.306;2023-07-13T00:41:10;8.18;;;2.20;;
75090;SDS011;63674;48.048;8.306;2023-07-13T00:43:38;5.05;;;1.85;;
75090;SDS011;63674;48.048;8.306;2023-07-13T00:46:11;6.93;;;2.05;;
75090;SDS011;63674;48.048;8.306;2023-07-13T00:48:59;6.83;;;1.40;;
75090;SDS011;63674;48.048;8.306;2023-07-13T00:51:32;5.30;;;1.50;;
75090;SDS011;63674;48.048;8.306;2023-07-13T00:54:05;7.00;;;1.60;;
75090;SDS011;63674;48.048;8.306;2023-07-13T00:56:38;4.47;;;1.70;;
75090;SDS011;63674;48.048;8.306;2023-07-13T00:59:08;9.02;;;1.50;;
75090;SDS011;63674;48.048;8.306;2023-07-13T01:01:40;5.30;;;1.70;;
75090;SDS011;63674;48.048;8.306;2023-07-13T01:04:09;7.07;;;1.80;;
75090;SDS011;63674;48.048;8.306;2023-07-13T01:06:39;5.18;;;1.40;;
75090;SDS011;63674;48.048;8.306;2023-07-13T01:09:10;4.78;;;1.40;;
75090;SDS011;63674;48.048;8.306;2023-07-13T01:11:40;5.40;;;1.63;;
75090;SDS011;63674;48.048;8.306;2023-07-13T01:14:09;4.07;;;1.37;;
75090;SDS011;63674;48.048;8.306;2023-07-13T01:16:38;7.82;;;1.40;;
75090;SDS011;63674;48.048;8.306;2023-07-13T01:19:12;6.60;;;1.58;;
75090;SDS011;63674;48.048;8.306;2023-07-13T01:22:04;4.55;;;1.60;;
75090;SDS011;63674;48.048;8.306;2023-07-13T01:24:36;4.90;;;1.60;;
75090;SDS011;63674;48.048;8.306;2023-07-13T01:27:07;4.47;;;1.27;;
75090;SDS011;63674;48.048;8.306;2023-07-13T01:29:37;5.63;;;1.55;;
75090;SDS011;63674;48.048;8.306;2023-07-13T01:32:10;5.82;;;1.55;;
75090;SDS011;63674;48.048;8.306;2023-07-13T01:34:42;4.30;;;1.30;;
75090;SDS011;63674;48.048;8.306;2023-07-13T01:37:12;5.05;;;1.42;;
75090;SDS011;63674;48.048;8.306;2023-07-13T01:39:41;6.13;;;1.40;;
75090;SDS011;63674;48.048;8.306;2023-07-13T01:42:09;4.57;;;1.23;;
75090;SDS011;63674;48.048;8.306;2023-07-13T01:44:38;5.72;;;1.20;;
75090;SDS011;63674;48.048;8.306;2023-07-13T01:47:06;6.63;;;1.75;;
75090;SDS011;63674;48.048;8.306;2023-07-13T01:49:35;4.50;;;1.20;;
75090;SDS011;63674;48.048;8.306;2023-07-13T01:52:05;4.43;;;1.30;;
75090;SDS011;63674;48.048;8.306;2023-07-13T01:54:35;3.63;;;1.02;;
75090;SDS011;63674;48.048;8.306;2023-07-13T01:57:04;5.70;;;1.30;;
75090;SDS011;63674;48.048;8.306;2023-07-13T01:59:33;4.32;;;1.50;;
75090;SDS011;63674;48.048;8.306;2023-07-13T02:02:02;4.38;;;1.20;;
75090;SDS011;63674;48.048;8.306;2023-07-13T02:04:31;5.83;;;1.70;;
75090;SDS011;63674;48.048;8.306;2023-07-13T02:06:59;5.72;;;1.20;;
75090;SDS011;63674;48.048;8.306;2023-07-13T02:09:28;7.30;;;1.30;;
75090;SDS011;63674;48.048;8.306;2023-07-13T02:11:59;4.80;;;1.10;;
75090;SDS011;63674;48.048;8.306;2023-07-13T02:14:27;4.82;;;1.48;;
75090;SDS011;63674;48.048;8.306;2023-07-13T02:16:56;6.77;;;1.17;;
75090;SDS011;63674;48.048;8.306;2023-07-13T02:19:24;5.95;;;1.30;;
75090;SDS011;63674;48.048;8.306;2023-07-13T02:21:54;8.52;;;1.50;;
75090;SDS011;63674;48.048;8.306;2023-07-13T02:24:22;5.70;;;1.20;;
75090;SDS011;63674;48.048;8.306;2023-07-13T02:26:51;5.55;;;1.60;;
75090;SDS011;63674;48.048;8.306;2023-07-13T02:29:21;5.07;;;1.13;;
75090;SDS011;63674;48.048;8.306;2023-07-13T02:31:50;4.47;;;1.27;;
75090;SDS011;63674;48.048;8.306;2023-07-13T02:34:18;6.47;;;1.38;;
75090;SDS011;63674;48.048;8.306;2023-07-13T02:36:47;6.55;;;1.40;;
75090;SDS011;63674;48.048;8.306;2023-07-13T02:39:15;4.57;;;1.25;;
75090;SDS011;63674;48.048;8.306;2023-07-13T02:41:44;8.23;;;1.50;;
75090;SDS011;63674;48.048;8.306;2023-07-13T02:44:13;8.27;;;1.60;;
75090;SDS011;63674;48.048;8.306;2023-07-13T02:46:44;6.95;;;1.60;;
75090;SDS011;63674;48.048;8.306;2023-07-13T02:49:13;7.10;;;1.60;;
75090;SDS011;63674;48.048;8.306;2023-07-13T02:51:41;7.80;;;1.52;;
75090;SDS011;63674;48.048;8.306;2023-07-13T02:54:10;7.07;;;1.10;;
75090;SDS011;63674;48.048;8.306;2023-07-13T02:56:40;6.50;;;1.48;;
75090;SDS011;63674;48.048;8.306;2023-07-13T02:59:09;6.03;;;1.48;;
75090;SDS011;63674;48.048;8.306;2023-07-13T03:01:38;5.05;;;1.33;;
75090;SDS011;63674;48.048;8.306;2023-07-13T03:04:09;6.00;;;1.50;;
75090;SDS011;63674;48.048;8.306;2023-07-13T03:06:39;6.70;;;1.30;;
75090;SDS011;63674;48.048;8.306;2023-07-13T03:09:08;4.70;;;1.33;;
75090;SDS011;63674;48.048;8.306;2023-07-13T03:11:36;5.65;;;1.60;;
75090;SDS011;63674;48.048;8.306;2023-07-13T03:14:05;4.43;;;1.50;;
75090;SDS011;63674;48.048;8.306;2023-07-13T03:16:38;5.43;;;1.20;;
75090;SDS011;63674;48.048;8.306;2023-07-13T03:19:16;5.63;;;1.30;;
75090;SDS011;63674;48.048;8.306;2023-07-13T03:21:44;7.43;;;1.23;;
75090;SDS011;63674;48.048;8.306;2023-07-13T03:24:13;5.75;;;1.50;;
75090;SDS011;63674;48.048;8.306;2023-07-13T03:26:41;5.07;;;1.23;;
75090;SDS011;63674;48.048;8.306;2023-07-13T03:29:10;7.85;;;1.30;;
75090;SDS011;63674;48.048;8.306;2023-07-13T03:31:39;5.40;;;1.10;;
75090;SDS011;63674;48.048;8.306;2023-07-13T03:34:08;6.38;;;1.30;;
75090;SDS011;63674;48.048;8.306;2023-07-13T03:36:38;5.10;;;1.38;;
75090;SDS011;63674;48.048;8.306;2023-07-13T03:39:06;4.90;;;1.30;;
75090;SDS011;63674;48.048;8.306;2023-07-13T03:41:36;5.38;;;1.45;;
75090;SDS011;63674;48.048;8.306;2023-07-13T03:44:05;6.63;;;1.20;;
75090;SDS011;63674;48.048;8.306;2023-07-13T03:46:34;4.75;;;1.30;;
75090;SDS011;63674;48.048;8.306;2023-07-13T03:49:03;5.35;;;1.50;;
75090;SDS011;63674;48.048;8.306;2023-07-13T03:51:32;4.57;;;1.50;;
75090;SDS011;63674;48.048;8.306;2023-07-13T03:54:02;6.35;;;1.40;;
75090;SDS011;63674;48.048;8.306;2023-07-13T03:56:31;5.00;;;1.20;;
75090;SDS011;63674;48.048;8.306;2023-07-13T03:59:00;5.95;;;1.30;;
75090;SDS011;63674;48.048;8.306;2023-07-13T04:01:30;5.32;;;1.30;;
75090;SDS011;63674;48.048;8.306;2023-07-13T04:03:59;5.88;;;1.60;;
75090;SDS011;63674;48.048;8.306;2023-07-13T04:06:29;5.38;;;2.05;;
75090;SDS011;63674;48.048;8.306;2023-07-13T04:09:00;6.83;;;1.90;;
75090;SDS011;63674;48.048;8.306;2023-07-13T04:11:32;5.78;;;1.70;;
75090;SDS011;63674;48.048;8.306;2023-07-13T04:14:03;4.32;;;1.80;;
75090;SDS011;63674;48.048;8.306;2023-07-13T04:16:32;8.07;;;1.60;;
75090;SDS011;63674;48.048;8.306;2023-07-13T04:19:01;6.85;;;1.63;;
75090;SDS011;63674;48.048;8.306;2023-07-13T04:21:30;4.97;;;1.30;;
75090;SDS011;63674;48.048;8.306;2023-07-13T04:23:59;8.65;;;1.80;;
75090;SDS011;63674;48.048;8.306;2023-07-13T04:26:29;6.63;;;1.60;;
75090;SDS011;63674;48.048;8.306;2023-07-13T04:28:58;7.43;;;1.70;;
75090;SDS011;63674;48.048;8.306;2023-07-13T04:31:27;5.95;;;1.73;;
75090;SDS011;63674;48.048;8.306;2023-07-13T04:33:55;5.97;;;1.80;;
75090;SDS011;63674;48.048;8.306;2023-07-13T04:36:24;7.38;;;2.38;;
75090;SDS011;63674;48.048;8.306;2023-07-13T04:38:54;6.63;;;2.33;;
75090;SDS011;63674;48.048;8.306;2023-07-13T04:41:24;5.30;;;1.83;;
75090;SDS011;63674;48.048;8.306;2023-07-13T04:43:52;6.05;;;2.20;;
75090;SDS011;63674;48.048;8.306;2023-07-13T04:46:22;7.63;;;1.70;;
75090;SDS011;63674;48.048;8.306;2023-07-13T04:48:51;9.18;;;2.10;;
75090;SDS011;63674;48.048;8.306;2023-07-13T04:51:20;8.73;;;2.10;;
75090;SDS011;63674;48.048;8.306;2023-07-13T04:53:49;7.78;;;2.47;;
75090;SDS011;63674;48.048;8.306;2023-07-13T04:56:26;7.05;;;2.03;;
75090;SDS011;63674;48.048;8.306;2023-07-13T04:58:55;6.70;;;1.87;;
75090;SDS011;63674;48.048;8.306;2023-07-13T05:01:25;8.30;;;2.15;;
75090;SDS011;63674;48.048;8.306;2023-07-13T05:03:53;7.55;;;2.20;;
75090;SDS011;63674;48.048;8.306;2023-07-13T05:06:25;5.90;;;1.80;;
75090;SDS011;63674;48.048;8.306;2023-07-13T05:08:55;6.47;;;2.13;;
75090;SDS011;63674;48.048;8.306;2023-07-13T05:11:23;7.37;;;2.30;;
75090;SDS011;63674;48.048;8.306;2023-07-13T05:13:53;6.07;;;2.25;;
75090;SDS011;63674;48.048;8.306;2023-07-13T05:16:22;10.35;;;2.20;;
75090;SDS011;63674;48.048;8.306;2023-07-13T05:18:51;7.43;;;2.10;;
75090;SDS011;63674;48.048;8.306;2023-07-13T05:21:20;7.18;;;2.10;;
75090;SDS011;63674;48.048;8.306;2023-07-13T05:23:49;9.10;;;2.10;;
75090;SDS011;63674;48.048;8.306;2023-07-13T05:26:18;6.85;;;2.10;;
75090;SDS011;63674;48.048;8.306;2023-07-13T05:28:47;7.00;;;1.90;;
75090;SDS011;63674;48.048;8.306;2023-07-13T05:31:17;5.05;;;1.73;;
75090;SDS011;63674;48.048;8.306;2023-07-13T05:33:45;4.95;;;1.90;;
75090;SDS011;63674;48.048;8.306;2023-07-13T05:36:14;7.40;;;1.73;;
75090;SDS011;63674;48.048;8.306;2023-07-13T05:38:43;6.40;;;2.00;;
75090;SDS011;63674;48.048;8.306;2023-07-13T05:41:11;6.95;;;1.70;;
75090;SDS011;63674;48.048;8.306;2023-07-13T05:43:40;6.38;;;2.10;;
75090;SDS011;63674;48.048;8.306;2023-07-13T05:46:08;8.20;;;2.10;;
75090;SDS011;63674;48.048;8.306;2023-07-13T05:48:38;6.77;;;2.10;;
75090;SDS011;63674;48.048;8.306;2023-07-13T05:51:07;6.50;;;2.10;;
75090;SDS011;63674;48.048;8.306;2023-07-13T05:53:36;6.15;;;2.00;;
75090;SDS011;63674;48.048;8.306;2023-07-13T05:56:05;10.02;;;2.42;;
75090;SDS011;63674;48.048;8.306;2023-07-13T05:58:33;7.28;;;2.00;;
75090;SDS011;63674;48.048;8.306;2023-07-13T06:01:03;5.57;;;1.60;;
75090;SDS011;63674;48.048;8.306;2023-07-13T06:03:33;6.70;;;2.30;;
75090;SDS011;63674;48.048;8.306;2023-07-13T06:06:06;5.57;;;1.90;;
75090;SDS011;63674;48.048;8.306;2023-07-13T06:08:36;7.22;;;2.08;;
75090;SDS011;63674;48.048;8.306;2023-07-13T06:11:06;7.72;;;1.90;;
75090;SDS011;63674;48.048;8.306;2023-07-13T06:13:38;6.47;;;1.93;;
75090;SDS011;63674;48.048;8.306;2023-07-13T06:16:06;8.20;;;2.10;;
75090;SDS011;63674;48.048;8.306;2023-07-13T06:18:36;6.68;;;1.90;;
75090;SDS011;63674;48.048;8.306;2023-07-13T06:21:07;5.82;;;1.75;;
75090;SDS011;63674;48.048;8.306;2023-07-13T06:23:38;6.43;;;2.10;;
75090;SDS011;63674;48.048;8.306;2023-07-13T06:26:07;6.10;;;1.80;;
75090;SDS011;63674;48.048;8.306;2023-07-13T06:28:36;8.30;;;1.88;;
75090;SDS011;63674;48.048;8.306;2023-07-13T06:31:07;6.78;;;1.95;;
75090;SDS011;63674;48.048;8.306;2023-07-13T06:33:38;4.57;;;1.52;;
75090;SDS011;63674;48.048;8.306;2023-07-13T06:36:09;5.55;;;1.75;;
75090;SDS011;63674;48.048;8.306;2023-07-13T06:38:37;4.90;;;1.40;;
75090;SDS011;63674;48.048;8.306;2023-07-13T06:41:06;5.32;;;1.50;;
75090;SDS011;63674;48.048;8.306;2023-07-13T06:43:36;6.32;;;1.50;;
75090;SDS011;63674;48.048;8.306;2023-07-13T06:46:05;10.20;;;1.42;;
75090;SDS011;63674;48.048;8.306;2023-07-13T06:48:33;9.52;;;1.40;;
75090;SDS011;63674;48.048;8.306;2023-07-13T06:51:02;5.80;;;1.30;;
75090;SDS011;63674;48.048;8.306;2023-07-13T06:53:32;4.63;;;1.48;;
75090;SDS011;63674;48.048;8.306;2023-07-13T06:56:01;7.97;;;1.50;;
75090;SDS011;63674;48.048;8.306;2023-07-13T06:58:30;6.18;;;1.50;;
75090;SDS011;63674;48.048;8.306;2023-07-13T07:01:01;5.00;;;1.58;;
75090;SDS011;63674;48.048;8.306;2023-07-13T07:03:29;5.40;;;1.50;;
75090;SDS011;63674;48.048;8.306;2023-07-13T07:06:03;4.90;;;1.50;;
75090;SDS011;63674;48.048;8.306;2023-07-13T07:08:45;6.57;;;1.40;;
75090;SDS011;63674;48.048;8.306;2023-07-13T07:11:14;5.05;;;1.42;;
75090;SDS011;63674;48.048;8.306;2023-07-13T07:13:46;5.68;;;1.50;;
75090;SDS011;63674;48.048;8.306;2023-07-13T07:16:15;4.77;;;1.50;;
75090;SDS011;63674;48.048;8.306;2023-07-13T07:18:43;5.82;;;1.10;;
75090;SDS011;63674;48.048;8.306;2023-07-13T07:21:12;6.03;;;1.50;;
75090;SDS011;63674;48.048;8.306;2023-07-13T07:23:41;5.97;;;1.42;;
75090;SDS011;63674;48.048;8.306;2023-07-13T07:26:11;5.93;;;1.40;;
75090;SDS011;63674;48.048;8.306;2023-07-13T07:28:40;5.90;;;1.30;;
75090;SDS011;63674;48.048;8.306;2023-07-13T07:31:14;6.63;;;1.30;;
75090;SDS011;63674;48.048;8.306;2023-07-13T07:33:46;5.85;;;1.33;;
75090;SDS011;63674;48.048;8.306;2023-07-13T07:36:16;5.28;;;1.33;;
75090;SDS011;63674;48.048;8.306;2023-07-13T07:38:48;5.70;;;1.45;;
75090;SDS011;63674;48.048;8.306;2023-07-13T07:41:18;7.97;;;1.30;;
75090;SDS011;63674;48.048;8.306;2023-07-13T07:43:49;5.90;;;1.40;;
75090;SDS011;63674;48.048;8.306;2023-07-13T07:46:18;6.85;;;1.30;;
75090;SDS011;63674;48.048;8.306;2023-07-13T07:48:47;5.63;;;1.15;;
75090;SDS011;63674;48.048;8.306;2023-07-13T07:51:15;7.20;;;1.40;;
75090;SDS011;63674;48.048;8.306;2023-07-13T07:53:44;7.03;;;1.20;;
75090;SDS011;63674;48.048;8.306;2023-07-13T07:56:13;6.30;;;1.30;;
75090;SDS011;63674;48.048;8.306;2023-07-13T07:58:47;6.07;;;1.20;;
75090;SDS011;63674;48.048;8.306;2023-07-13T08:01:18;6.47;;;1.27;;
75090;SDS011;63674;48.048;8.306;2023-07-13T08:03:50;5.28;;;1.60;;
75090;SDS011;63674;48.048;8.306;2023-07-13T08:06:21;6.00;;;1.40;;
75090;SDS011;63674;48.048;8.306;2023-07-13T08:08:53;4.40;;;1.63;;
75090;SDS011;63674;48.048;8.306;2023-07-13T08:11:22;4.95;;;1.20;;
75090;SDS011;63674;48.048;8.306;2023-07-13T08:13:55;5.22;;;1.15;;
75090;SDS011;63674;48.048;8.306;2023-07-13T08:16:24;5.43;;;1.10;;
75090;SDS011;63674;48.048;8.306;2023-07-13T08:18:53;5.43;;;1.03;;
75090;SDS011;63674;48.048;8.306;2023-07-13T08:21:22;5.10;;;1.15;;
75090;SDS011;63674;48.048;8.306;2023-07-13T08:23:51;5.20;;;1.20;;
75090;SDS011;63674;48.048;8.306;2023-07-13T08:26:19;4.80;;;1.30;;
75090;SDS011;63674;48.048;8.306;2023-07-13T08:28:48;8.43;;;1.20;;
75090;SDS011;63674;48.048;8.306;2023-07-13T08:31:18;4.03;;;1.07;;
75090;SDS011;63674;48.048;8.306;2023-07-13T08:33:47;4.60;;;1.20;;
75090;SDS011;63674;48.048;8.306;2023-07-13T08:36:15;4.80;;;1.23;;
75090;SDS011;63674;48.048;8.306;2023-07-13T08:38:44;4.88;;;1.10;;
75090;SDS011;63674;48.048;8.306;2023-07-13T08:41:13;6.55;;;1.30;;
75090;SDS011;63674;48.048;8.306;2023-07-13T08:43:45;6.40;;;1.10;;
75090;SDS011;63674;48.048;8.306;2023-07-13T08:46:19;5.75;;;1.17;;
75090;SDS011;63674;48.048;8.306;2023-07-13T08:48:55;7.13;;;1.45;;
75090;SDS011;63674;48.048;8.306;2023-07-13T08:51:29;5.15;;;1.05;;
75090;SDS011;63674;48.048;8.306;2023-07-13T08:54:09;4.75;;;1.20;;
75090;SDS011;63674;48.048;8.306;2023-07-13T08:56:47;4.07;;;1.10;;
75090;SDS011;63674;48.048;8.306;2023-07-13T08:59:22;5.97;;;1.17;;
75090;SDS011;63674;48.048;8.306;2023-07-13T09:02:00;4.80;;;1.50;;
75090;SDS011;63674;48.048;8.306;2023-07-13T09:04:45;5.47;;;1.25;;
75090;SDS011;63674;48.048;8.306;2023-07-13T09:07:21;6.43;;;1.30;;
75090;SDS011;63674;48.048;8.306;2023-07-13T09:10:04;5.27;;;1.40;;
75090;SDS011;63674;48.048;8.306;2023-07-13T09:12:48;5.60;;;1.33;;
75090;SDS011;63674;48.048;8.306;2023-07-13T09:15:26;5.47;;;1.35;;
75090;SDS011;63674;48.048;8.306;2023-07-13T09:18:01;4.60;;;1.65;;
75090;SDS011;63674;48.048;8.306;2023-07-13T09:20:34;4.80;;;1.10;;
75090;SDS011;63674;48.048;8.306;2023-07-13T09:23:07;5.93;;;1.27;;
75090;SDS011;63674;48.048;8.306;2023-07-13T09:25:49;8.68;;;1.50;;
75090;SDS011;63674;48.048;8.306;2023-07-13T09:28:23;8.45;;;1.77;;
75090;SDS011;63674;48.048;8.306;2023-07-13T09:30:56;4.70;;;1.00;;
75090;SDS011;63674;48.048;8.306;2023-07-13T09:33:44;5.68;;;1.10;;
75090;SDS011;63674;48.048;8.306;2023-07-13T09:36:20;4.90;;;1.20;;
75090;SDS011;63674;48.048;8.306;2023-07-13T09:38:53;10.48;;;1.33;;
75090;SDS011;63674;48.048;8.306;2023-07-13T09:41:28;5.47;;;1.02;;
75090;SDS011;63674;48.048;8.306;2023-07-13T09:44:09;8.15;;;1.40;;
75090;SDS011;63674;48.048;8.306;2023-07-13T09:46:43;6.18;;;1.20;;
75090;SDS011;63674;48.048;8.306;2023-07-13T09:49:16;4.67;;;1.17;;
75090;SDS011;63674;48.048;8.306;2023-07-13T09:51:45;6.93;;;1.30;;
75090;SDS011;63674;48.048;8.306;2023-07-13T09:54:23;3.92;;;1.10;;
75090;SDS011;63674;48.048;8.306;2023-07-13T09:56:55;5.05;;;1.30;;
75090;SDS011;63674;48.048;8.306;2023-07-13T09:59:27;7.68;;;1.40;;
75090;SDS011;63674;48.048;8.306;2023-07-13T10:01:58;7.30;;;1.20;;
75090;SDS011;63674;48.048;8.306;2023-07-13T10:04:30;5.35;;;1.08;;
75090;SDS011;63674;48.048;8.306;2023-07-13T10:07:07;3.75;;;1.10;;
75090;SDS011;63674;48.048;8.306;2023-07-13T10:09:55;4.82;;;1.02;;
75090;SDS011;63674;48.048;8.306;2023-07-13T10:12:25;5.07;;;1.33;;
75090;SDS011;63674;48.048;8.306;2023-07-13T10:14:54;4.33;;;1.20;;
75090;SDS011;63674;48.048;8.306;2023-07-13T10:17:46;4.40;;;1.23;;
75090;SDS011;63674;48.048;8.306;2023-07-13T10:20:17;5.63;;;1.50;;
75090;SDS011;63674;48.048;8.306;2023-07-13T10:22:49;7.07;;;1.50;;
75090;SDS011;63674;48.048;8.306;2023-07-13T10:25:23;4.45;;;1.20;;
75090;SDS011;63674;48.048;8.306;2023-07-13T10:27:56;6.43;;;1.13;;
75090;SDS011;63674;48.048;8.306;2023-07-13T10:30:32;5.85;;;1.35;;
75090;SDS011;63674;48.048;8.306;2023-07-13T10:33:03;5.80;;;1.40;;
75090;SDS011;63674;48.048;8.306;2023-07-13T10:35:42;5.80;;;1.40;;
75090;SDS011;63674;48.048;8.306;2023-07-13T10:38:14;5.55;;;1.38;;
75090;SDS011;63674;48.048;8.306;2023-07-13T10:40:49;5.33;;;1.10;;
75090;SDS011;63674;48.048;8.306;2023-07-13T10:43:25;3.90;;;1.23;;
75090;SDS011;63674;48.048;8.306;2023-07-13T10:46:03;5.63;;;1.50;;
75090;SDS011;63674;48.048;8.306;2023-07-13T10:48:34;6.05;;;1.45;;
75090;SDS011;63674;48.048;8.306;2023-07-13T10:51:06;4.65;;;1.30;;
75090;SDS011;63674;48.048;8.306;2023-07-13T10:53:37;7.57;;;1.10;;
75090;SDS011;63674;48.048;8.306;2023-07-13T10:56:16;4.28;;;1.20;;
75090;SDS011;63674;48.048;8.306;2023-07-13T10:59:05;7.00;;;1.42;;
75090;SDS011;63674;48.048;8.306;2023-07-13T11:01:41;5.68;;;1.33;;
75090;SDS011;63674;48.048;8.306;2023-07-13T11:04:21;5.13;;;1.00;;
75090;SDS011;63674;48.048;8.306;2023-07-13T11:06:57;5.73;;;1.10;;
75090;SDS011;63674;48.048;8.306;2023-07-13T11:09:35;4.97;;;1.20;;
75090;SDS011;63674;48.048;8.306;2023-07-13T11:12:07;5.03;;;1.60;;
75090;SDS011;63674;48.048;8.306;2023-07-13T11:15:04;4.60;;;1.13;;
75090;SDS011;63674;48.048;8.306;2023-07-13T11:17:49;4.68;;;1.13;;
75090;SDS011;63674;48.048;8.306;2023-07-13T11:20:32;3.50;;;0.90;;
75090;SDS011;63674;48.048;8.306;2023-07-13T11:23:17;4.75;;;1.02;;
75090;SDS011;63674;48.048;8.306;2023-07-13T11:25:55;5.50;;;1.20;;
75090;SDS011;63674;48.048;8.306;2023-07-13T11:28:25;4.95;;;1.17;;
75090;SDS011;63674;48.048;8.306;2023-07-13T11:33:53;4.73;;;1.00;;
75090;SDS011;63674;48.048;8.306;2023-07-13T11:36:29;4.93;;;1.10;;
75090;SDS011;63674;48.048;8.306;2023-07-13T11:39:10;4.40;;;1.00;;
75090;SDS011;63674;48.048;8.306;2023-07-13T11:41:45;14.65;;;1.40;;
75090;SDS011;63674;48.048;8.306;2023-07-13T11:44:22;3.47;;;1.00;;
75090;SDS011;63674;48.048;8.306;2023-07-13T11:46:53;4.83;;;1.00;;
75090;SDS011;63674;48.048;8.306;2023-07-13T11:49:29;4.45;;;1.30;;
75090;SDS011;63674;48.048;8.306;2023-07-13T11:52:00;3.60;;;1.30;;
75090;SDS011;63674;48.048;8.306;2023-07-13T11:54:31;3.97;;;1.20;;
75090;SDS011;63674;48.048;8.306;2023-07-13T11:57:13;5.35;;;1.20;;
75090;SDS011;63674;48.048;8.306;2023-07-13T11:59:51;5.47;;;1.30;;
75090;SDS011;63674;48.048;8.306;2023-07-13T12:02:25;5.75;;;1.40;;
75090;SDS011;63674;48.048;8.306;2023-07-13T12:04:57;8.82;;;1.15;;
75090;SDS011;63674;48.048;8.306;2023-07-13T12:07:47;5.22;;;1.15;;
75090;SDS011;63674;48.048;8.306;2023-07-13T12:10:20;5.80;;;1.27;;
75090;SDS011;63674;48.048;8.306;2023-07-13T12:12:52;4.30;;;1.10;;
75090;SDS011;63674;48.048;8.306;2023-07-13T12:15:23;5.10;;;1.05;;
75090;SDS011;63674;48.048;8.306;2023-07-13T12:18:00;3.92;;;1.00;;
75090;SDS011;63674;48.048;8.306;2023-07-13T12:20:30;4.57;;;1.20;;
75090;SDS011;63674;48.048;8.306;2023-07-13T12:23:05;7.22;;;1.40;;
75090;SDS011;63674;48.048;8.306;2023-07-13T12:25:44;4.30;;;1.10;;
75090;SDS011;63674;48.048;8.306;2023-07-13T12:28:22;4.13;;;1.02;;
75090;SDS011;63674;48.048;8.306;2023-07-13T12:31:00;4.00;;;1.20;;
75090;SDS011;63674;48.048;8.306;2023-07-13T12:33:31;5.43;;;1.02;;
75090;SDS011;63674;48.048;8.306;2023-07-13T12:36:02;4.45;;;1.05;;
75090;SDS011;63674;48.048;8.306;2023-07-13T12:38:34;5.07;;;0.97;;
75090;SDS011;63674;48.048;8.306;2023-07-13T12:41:04;3.78;;;1.00;;
75090;SDS011;63674;48.048;8.306;2023-07-13T12:43:36;5.32;;;1.10;;
75090;SDS011;63674;48.048;8.306;2023-07-13T12:46:14;5.75;;;1.27;;
75090;SDS011;63674;48.048;8.306;2023-07-13T12:48:48;4.68;;;1.10;;
75090;SDS011;63674;48.048;8.306;2023-07-13T12:51:33;4.23;;;1.10;;
75090;SDS011;63674;48.048;8.306;2023-07-13T12:54:12;4.15;;;1.10;;
75090;SDS011;63674;48.048;8.306;2023-07-13T12:56:49;5.15;;;1.45;;
75090;SDS011;63674;48.048;8.306;2023-07-13T12:59:22;4.65;;;1.00;;
75090;SDS011;63674;48.048;8.306;2023-07-13T13:01:54;6.50;;;1.30;;
75090;SDS011;63674;48.048;8.306;2023-07-13T13:04:23;4.20;;;0.90;;
75090;SDS011;63674;48.048;8.306;2023-07-13T13:07:00;4.00;;;1.05;;
75090;SDS011;63674;48.048;8.306;2023-07-13T13:09:30;4.68;;;0.95;;
75090;SDS011;63674;48.048;8.306;2023-07-13T13:12:00;7.13;;;1.20;;
75090;SDS011;63674;48.048;8.306;2023-07-13T13:14:29;5.28;;;1.00;;
75090;SDS011;63674;48.048;8.306;2023-07-13T13:16:57;5.23;;;1.00;;
75090;SDS011;63674;48.048;8.306;2023-07-13T13:19:27;5.97;;;1.05;;
75090;SDS011;63674;48.048;8.306;2023-07-13T13:21:57;3.90;;;1.10;;
75090;SDS011;63674;48.048;8.306;2023-07-13T13:24:26;4.50;;;0.98;;
75090;SDS011;63674;48.048;8.306;2023-07-13T13:26:56;4.30;;;1.30;;
75090;SDS011;63674;48.048;8.306;2023-07-13T13:29:26;4.63;;;1.30;;
75090;SDS011;63674;48.048;8.306;2023-07-13T13:31:55;4.25;;;1.20;;
75090;SDS011;63674;48.048;8.306;2023-07-13T13:34:24;5.45;;;1.30;;
75090;SDS011;63674;48.048;8.306;2023-07-13T13:36:53;4.25;;;1.30;;
75090;SDS011;63674;48.048;8.306;2023-07-13T13:39:28;4.30;;;1.10;;
75090;SDS011;63674;48.048;8.306;2023-07-13T13:42:01;5.43;;;1.20;;
75090;SDS011;63674;48.048;8.306;2023-07-13T13:44:32;5.10;;;1.10;;
75090;SDS011;63674;48.048;8.306;2023-07-13T13:47:01;5.28;;;1.50;;
75090;SDS011;63674;48.048;8.306;2023-07-13T13:49:30;4.75;;;1.20;;
75090;SDS011;63674;48.048;8.306;2023-07-13T13:51:59;4.70;;;1.30;;
75090;SDS011;63674;48.048;8.306;2023-07-13T13:54:28;6.30;;;1.20;;
75090;SDS011;63674;48.048;8.306;2023-07-13T13:56:57;5.80;;;1.20;;
75090;SDS011;63674;48.048;8.306;2023-07-13T13:59:26;7.13;;;1.70;;
75090;SDS011;63674;48.048;8.306;2023-07-13T14:01:56;5.35;;;1.38;;
75090;SDS011;63674;48.048;8.306;2023-07-13T14:04:26;4.75;;;1.55;;
75090;SDS011;63674;48.048;8.306;2023-07-13T14:06:55;8.07;;;1.80;;
75090;SDS011;63674;48.048;8.306;2023-07-13T14:09:24;5.32;;;1.55;;
75090;SDS011;63674;48.048;8.306;2023-07-13T14:11:52;7.88;;;1.65;;
75090;SDS011;63674;48.048;8.306;2023-07-13T14:14:22;10.75;;;1.50;;
75090;SDS011;63674;48.048;8.306;2023-07-13T14:16:53;5.07;;;1.30;;
75090;SDS011;63674;48.048;8.306;2023-07-13T14:19:25;6.47;;;1.70;;
75090;SDS011;63674;48.048;8.306;2023-07-13T14:21:54;5.07;;;1.38;;
75090;SDS011;63674;48.048;8.306;2023-07-13T14:24:23;5.65;;;1.73;;
75090;SDS011;63674;48.048;8.306;2023-07-13T14:26:52;4.82;;;1.50;;
75090;SDS011;63674;48.048;8.306;2023-07-13T14:29:20;6.13;;;1.20;;
75090;SDS011;63674;48.048;8.306;2023-07-13T14:31:50;7.23;;;1.63;;
75090;SDS011;63674;48.048;8.306;2023-07-13T14:34:21;7.10;;;1.58;;
75090;SDS011;63674;48.048;8.306;2023-07-13T14:36:49;5.13;;;1.70;;
75090;SDS011;63674;48.048;8.306;2023-07-13T14:39:19;5.15;;;1.50;;
75090;SDS011;63674;48.048;8.306;2023-07-13T14:41:52;6.40;;;1.40;;
75090;SDS011;63674;48.048;8.306;2023-07-13T14:44:23;6.50;;;1.50;;
75090;SDS011;63674;48.048;8.306;2023-07-13T14:46:55;5.78;;;1.40;;
75090;SDS011;63674;48.048;8.306;2023-07-13T14:49:28;6.18;;;1.60;;
75090;SDS011;63674;48.048;8.306;2023-07-13T14:52:02;5.32;;;1.33;;
75090;SDS011;63674;48.048;8.306;2023-07-13T14:54:38;4.68;;;1.60;;
75090;SDS011;63674;48.048;8.306;2023-07-13T14:57:10;7.87;;;1.33;;
75090;SDS011;63674;48.048;8.306;2023-07-13T14:59:40;6.32;;;1.20;;
75090;SDS011;63674;48.048;8.306;2023-07-13T15:02:14;5.85;;;1.60;;
75090;SDS011;63674;48.048;8.306;2023-07-13T15:04:48;5.95;;;1.20;;
75090;SDS011;63674;48.048;8.306;2023-07-13T15:07:16;5.15;;;1.55;;
75090;SDS011;63674;48.048;8.306;2023-07-13T15:09:47;4.40;;;1.40;;
75090;SDS011;63674;48.048;8.306;2023-07-13T15:12:17;5.82;;;1.55;;
75090;SDS011;63674;48.048;8.306;2023-07-13T15:14:46;4.45;;;1.40;;
75090;SDS011;63674;48.048;8.306;2023-07-13T15:17:18;3.70;;;1.20;;